sensor_id;sensor_type;location;lat;lon;timestamp;pressure;altitude;pressure_sealevel;temperature;humidity
64253;BME280;50592;52.958;-7.470;2023-10-08T00:05:37;101049.44;;;15.24;100.00
64253;BME280;50592;52.958;-7.470;2023-10-08T00:13:14;101046.59;;;15.18;100.00
64253;BME280;50592;52.958;-7.470;2023-10-08T00:17:01;101041.28;;;15.18;100.00
64253;BME280;50592;52.958;-7.470;2023-10-08T00:20:18;101040.44;;;15.17;100.00
64253;BME280;50592;52.958;-7.470;2023-10-08T00:23:45;101038.63;;;15.18;100.00
64253;BME280;50592;52.958;-7.470;2023-10-08T00:26:38;101029.78;;;15.17;100.00
64253;BME280;50592;52.958;-7.470;2023-10-08T00:36:40;101013.09;;;14.98;100.00
64253;BME280;50592;52.958;-7.470;2023-10-08T00:40:18;101039.50;;;14.92;100.00
64253;BME280;50592;52.958;-7.470;2023-10-08T00:43:43;101036.25;;;14.80;100.00
64253;BME280;50592;52.958;-7.470;2023-10-08T00:46:37;101049.59;;;14.88;100.00
64253;BME280;50592;52.958;-7.470;2023-10-08T00:49:57;101048.09;;;14.85;100.00
64253;BME280;50592;52.958;-7.470;2023-10-08T01:00:20;101039.00;;;14.96;100.00
64253;BME280;50592;52.958;-7.470;2023-10-08T01:07:03;101040.19;;;15.02;100.00
64253;BME280;50592;52.958;-7.470;2023-10-08T01:10:00;101049.13;;;14.93;100.00
64253;BME280;50592;52.958;-7.470;2023-10-08T01:13:08;101053.16;;;14.97;100.00
64253;BME280;50592;52.958;-7.470;2023-10-08T01:15:56;101051.63;;;14.94;100.00
64253;BME280;50592;52.958;-7.470;2023-10-08T01:18:42;101055.78;;;14.88;100.00
64253;BME280;50592;52.958;-7.470;2023-10-08T01:21:23;101051.13;;;14.91;100.00
64253;BME280;50592;52.958;-7.470;2023-10-08T01:24:27;101054.41;;;14.84;100.00
64253;BME280;50592;52.958;-7.470;2023-10-08T01:27:12;101058.22;;;14.82;100.00
64253;BME280;50592;52.958;-7.470;2023-10-08T01:30:13;101060.31;;;14.78;100.00
64253;BME280;50592;52.958;-7.470;2023-10-08T01:33:24;101059.97;;;14.73;100.00
64253;BME280;50592;52.958;-7.470;2023-10-08T01:39:18;101069.47;;;14.75;100.00
64253;BME280;50592;52.958;-7.470;2023-10-08T01:42:59;101077.44;;;14.75;100.00
64253;BME280;50592;52.958;-7.470;2023-10-08T01:46:25;101062.97;;;14.70;100.00
64253;BME280;50592;52.958;-7.470;2023-10-08T01:56:24;101045.63;;;14.66;100.00
64253;BME280;50592;52.958;-7.470;2023-10-08T01:59:34;101031.81;;;14.62;100.00
64253;BME280;50592;52.958;-7.470;2023-10-08T02:02:13;101035.13;;;14.64;100.00
64253;BME280;50592;52.958;-7.470;2023-10-08T02:04:56;101025.19;;;14.66;100.00
64253;BME280;50592;52.958;-7.470;2023-10-08T02:07:22;101028.16;;;14.63;100.00
64253;BME280;50592;52.958;-7.470;2023-10-08T02:09:48;101013.63;;;14.57;100.00
64253;BME280;50592;52.958;-7.470;2023-10-08T02:12:14;101022.16;;;14.61;100.00
64253;BME280;50592;52.958;-7.470;2023-10-08T02:14:40;101026.66;;;14.60;100.00
64253;BME280;50592;52.958;-7.470;2023-10-08T02:17:06;101021.78;;;14.56;100.00
64253;BME280;50592;52.958;-7.470;2023-10-08T02:19:32;101020.13;;;14.55;100.00
64253;BME280;50592;52.958;-7.470;2023-10-08T02:22:00;101031.06;;;14.51;100.00
64253;BME280;50592;52.958;-7.470;2023-10-08T02:24:26;101022.41;;;14.49;100.00
64253;BME280;50592;52.958;-7.470;2023-10-08T02:26:52;101013.22;;;14.44;100.00
64253;BME280;50592;52.958;-7.470;2023-10-08T02:29:19;101026.47;;;14.35;100.00
64253;BME280;50592;52.958;-7.470;2023-10-08T02:31:44;101024.72;;;14.26;100.00
64253;BME280;50592;52.958;-7.470;2023-10-08T02:34:10;101025.44;;;14.28;100.00
64253;BME280;50592;52.958;-7.470;2023-10-08T02:36:38;101023.28;;;14.32;100.00
64253;BME280;50592;52.958;-7.470;2023-10-08T02:39:07;101010.13;;;14.30;100.00
64253;BME280;50592;52.958;-7.470;2023-10-08T02:41:52;100991.00;;;14.26;100.00
64253;BME280;50592;52.958;-7.470;2023-10-08T02:44:18;101008.25;;;14.22;100.00
64253;BME280;50592;52.958;-7.470;2023-10-08T02:46:47;100999.97;;;14.25;100.00
64253;BME280;50592;52.958;-7.470;2023-10-08T02:49:18;100994.88;;;14.32;100.00
64253;BME280;50592;52.958;-7.470;2023-10-08T02:51:53;100996.69;;;14.32;100.00
64253;BME280;50592;52.958;-7.470;2023-10-08T02:54:20;100989.16;;;14.27;100.00
64253;BME280;50592;52.958;-7.470;2023-10-08T02:56:50;100979.06;;;14.31;100.00
64253;BME280;50592;52.958;-7.470;2023-10-08T02:59:32;100977.72;;;14.26;100.00
64253;BME280;50592;52.958;-7.470;2023-10-08T03:02:15;100996.50;;;14.25;100.00
64253;BME280;50592;52.958;-7.470;2023-10-08T03:04:51;100996.56;;;14.15;100.00
64253;BME280;50592;52.958;-7.470;2023-10-08T03:07:19;101001.00;;;14.06;100.00
64253;BME280;50592;52.958;-7.470;2023-10-08T03:09:50;101001.50;;;14.10;100.00
64253;BME280;50592;52.958;-7.470;2023-10-08T03:12:19;100995.72;;;14.14;100.00
64253;BME280;50592;52.958;-7.470;2023-10-08T03:14:50;100997.34;;;14.07;100.00
64253;BME280;50592;52.958;-7.470;2023-10-08T03:17:30;100993.19;;;14.05;100.00
64253;BME280;50592;52.958;-7.470;2023-10-08T03:20:00;100998.34;;;14.06;100.00
64253;BME280;50592;52.958;-7.470;2023-10-08T03:22:44;100996.88;;;14.12;100.00
64253;BME280;50592;52.958;-7.470;2023-10-08T03:25:12;100991.25;;;14.15;100.00
64253;BME280;50592;52.958;-7.470;2023-10-08T03:27:42;101001.81;;;14.07;100.00
64253;BME280;50592;52.958;-7.470;2023-10-08T03:30:09;100987.03;;;14.04;100.00
64253;BME280;50592;52.958;-7.470;2023-10-08T03:32:43;101003.66;;;14.06;100.00
64253;BME280;50592;52.958;-7.470;2023-10-08T03:35:20;101004.13;;;13.83;100.00
64253;BME280;50592;52.958;-7.470;2023-10-08T03:37:54;101003.50;;;13.71;100.00
64253;BME280;50592;52.958;-7.470;2023-10-08T03:40:20;101001.38;;;13.75;100.00
64253;BME280;50592;52.958;-7.470;2023-10-08T03:42:48;100992.00;;;13.81;100.00
64253;BME280;50592;52.958;-7.470;2023-10-08T03:45:15;100993.09;;;13.78;100.00
64253;BME280;50592;52.958;-7.470;2023-10-08T03:47:48;100989.09;;;13.74;100.00
64253;BME280;50592;52.958;-7.470;2023-10-08T03:50:29;100998.19;;;13.71;100.00
64253;BME280;50592;52.958;-7.470;2023-10-08T03:53:08;100992.06;;;13.71;100.00
64253;BME280;50592;52.958;-7.470;2023-10-08T03:55:38;100993.09;;;13.78;100.00
64253;BME280;50592;52.958;-7.470;2023-10-08T03:58:07;101002.78;;;13.79;100.00
64253;BME280;50592;52.958;-7.470;2023-10-08T04:00:37;100989.31;;;13.81;100.00
64253;BME280;50592;52.958;-7.470;2023-10-08T04:03:08;100992.50;;;13.84;100.00
64253;BME280;50592;52.958;-7.470;2023-10-08T04:05:37;100997.81;;;13.66;100.00
64253;BME280;50592;52.958;-7.470;2023-10-08T04:08:10;101003.50;;;13.53;100.00
64253;BME280;50592;52.958;-7.470;2023-10-08T04:11:10;100985.31;;;13.58;100.00
64253;BME280;50592;52.958;-7.470;2023-10-08T04:14:05;100993.94;;;13.60;100.00
64253;BME280;50592;52.958;-7.470;2023-10-08T04:16:32;100995.81;;;13.68;100.00
64253;BME280;50592;52.958;-7.470;2023-10-08T04:19:08;100995.53;;;13.71;100.00
64253;BME280;50592;52.958;-7.470;2023-10-08T04:21:33;101007.16;;;13.70;100.00
64253;BME280;50592;52.958;-7.470;2023-10-08T04:24:00;101002.13;;;13.67;100.00
64253;BME280;50592;52.958;-7.470;2023-10-08T04:26:29;100993.31;;;13.67;100.00
64253;BME280;50592;52.958;-7.470;2023-10-08T04:28:57;101014.13;;;13.71;100.00
64253;BME280;50592;52.958;-7.470;2023-10-08T04:31:24;101018.31;;;13.74;100.00
64253;BME280;50592;52.958;-7.470;2023-10-08T04:33:55;101019.13;;;13.74;100.00
64253;BME280;50592;52.958;-7.470;2023-10-08T04:36:26;101021.13;;;13.72;100.00
64253;BME280;50592;52.958;-7.470;2023-10-08T04:38:51;101020.88;;;13.66;100.00
64253;BME280;50592;52.958;-7.470;2023-10-08T04:41:20;101014.56;;;13.67;100.00
64253;BME280;50592;52.958;-7.470;2023-10-08T04:43:53;101014.22;;;13.61;100.00
64253;BME280;50592;52.958;-7.470;2023-10-08T04:46:21;100980.75;;;13.50;100.00
64253;BME280;50592;52.958;-7.470;2023-10-08T04:49:05;100998.84;;;13.27;100.00
64253;BME280;50592;52.958;-7.470;2023-10-08T04:51:34;100991.19;;;13.24;100.00
64253;BME280;50592;52.958;-7.470;2023-10-08T04:54:10;100990.38;;;13.23;100.00
64253;BME280;50592;52.958;-7.470;2023-10-08T04:56:42;100999.06;;;13.15;100.00
64253;BME280;50592;52.958;-7.470;2023-10-08T04:59:09;101000.91;;;13.15;100.00
64253;BME280;50592;52.958;-7.470;2023-10-08T05:01:37;101012.41;;;13.06;100.00
64253;BME280;50592;52.958;-7.470;2023-10-08T05:04:14;100997.22;;;12.98;100.00
64253;BME280;50592;52.958;-7.470;2023-10-08T05:06:49;101016.16;;;13.03;100.00
64253;BME280;50592;52.958;-7.470;2023-10-08T05:09:15;100990.16;;;13.07;100.00
64253;BME280;50592;52.958;-7.470;2023-10-08T05:11:48;100959.75;;;13.01;100.00
64253;BME280;50592;52.958;-7.470;2023-10-08T05:14:21;100971.78;;;12.95;100.00
64253;BME280;50592;52.958;-7.470;2023-10-08T05:19:49;100978.34;;;13.01;100.00
64253;BME280;50592;52.958;-7.470;2023-10-08T05:22:45;100986.81;;;13.05;100.00
64253;BME280;50592;52.958;-7.470;2023-10-08T05:25:20;100977.44;;;13.10;100.00
64253;BME280;50592;52.958;-7.470;2023-10-08T05:27:46;100974.34;;;13.15;100.00
64253;BME280;50592;52.958;-7.470;2023-10-08T05:30:19;100976.97;;;13.25;100.00
64253;BME280;50592;52.958;-7.470;2023-10-08T05:33:05;100995.63;;;13.33;100.00
64253;BME280;50592;52.958;-7.470;2023-10-08T05:35:35;101000.47;;;13.38;100.00
64253;BME280;50592;52.958;-7.470;2023-10-08T05:38:09;101002.59;;;13.34;100.00
64253;BME280;50592;52.958;-7.470;2023-10-08T05:40:53;101000.25;;;13.31;100.00
64253;BME280;50592;52.958;-7.470;2023-10-08T05:43:23;100995.16;;;13.38;100.00
64253;BME280;50592;52.958;-7.470;2023-10-08T05:46:15;101002.69;;;13.43;100.00
64253;BME280;50592;52.958;-7.470;2023-10-08T05:51:30;100993.03;;;13.51;100.00
64253;BME280;50592;52.958;-7.470;2023-10-08T05:54:24;100994.53;;;13.54;100.00
64253;BME280;50592;52.958;-7.470;2023-10-08T05:56:58;100990.63;;;13.48;100.00
64253;BME280;50592;52.958;-7.470;2023-10-08T05:59:47;101022.56;;;13.38;100.00
64253;BME280;50592;52.958;-7.470;2023-10-08T06:02:23;101024.81;;;13.33;100.00
64253;BME280;50592;52.958;-7.470;2023-10-08T06:05:03;101026.88;;;13.39;100.00
64253;BME280;50592;52.958;-7.470;2023-10-08T06:07:39;101013.59;;;13.39;100.00
64253;BME280;50592;52.958;-7.470;2023-10-08T06:10:22;101004.38;;;13.44;100.00
64253;BME280;50592;52.958;-7.470;2023-10-08T06:13:05;101023.47;;;13.47;100.00
64253;BME280;50592;52.958;-7.470;2023-10-08T06:15:48;101030.47;;;13.48;100.00
64253;BME280;50592;52.958;-7.470;2023-10-08T06:18:19;101038.44;;;13.48;100.00
64253;BME280;50592;52.958;-7.470;2023-10-08T06:20:48;101023.91;;;13.52;100.00
64253;BME280;50592;52.958;-7.470;2023-10-08T06:23:21;101028.66;;;13.49;100.00
64253;BME280;50592;52.958;-7.470;2023-10-08T06:25:52;101029.22;;;13.52;100.00
64253;BME280;50592;52.958;-7.470;2023-10-08T06:28:32;101024.06;;;13.51;100.00
64253;BME280;50592;52.958;-7.470;2023-10-08T06:31:01;101037.03;;;13.54;100.00
64253;BME280;50592;52.958;-7.470;2023-10-08T06:33:28;101048.34;;;13.56;100.00
64253;BME280;50592;52.958;-7.470;2023-10-08T06:35:59;101034.91;;;13.58;100.00
64253;BME280;50592;52.958;-7.470;2023-10-08T06:38:29;101036.06;;;13.55;100.00
64253;BME280;50592;52.958;-7.470;2023-10-08T06:41:04;101036.72;;;13.57;100.00
64253;BME280;50592;52.958;-7.470;2023-10-08T06:43:41;101032.81;;;13.61;100.00
64253;BME280;50592;52.958;-7.470;2023-10-08T06:46:30;101036.28;;;13.62;100.00
64253;BME280;50592;52.958;-7.470;2023-10-08T06:48:59;101043.13;;;13.64;100.00
64253;BME280;50592;52.958;-7.470;2023-10-08T06:51:24;101043.28;;;13.63;100.00
64253;BME280;50592;52.958;-7.470;2023-10-08T06:53:51;101048.44;;;13.64;100.00
64253;BME280;50592;52.958;-7.470;2023-10-08T06:56:19;101037.13;;;13.62;100.00
64253;BME280;50592;52.958;-7.470;2023-10-08T06:58:45;101034.47;;;13.62;100.00
64253;BME280;50592;52.958;-7.470;2023-10-08T07:01:19;101044.66;;;13.67;100.00
64253;BME280;50592;52.958;-7.470;2023-10-08T07:03:56;101062.25;;;13.68;100.00
64253;BME280;50592;52.958;-7.470;2023-10-08T07:06:32;101062.19;;;13.60;100.00
64253;BME280;50592;52.958;-7.470;2023-10-08T07:09:01;101058.28;;;13.54;100.00
64253;BME280;50592;52.958;-7.470;2023-10-08T07:11:34;101066.94;;;13.56;100.00
64253;BME280;50592;52.958;-7.470;2023-10-08T07:14:01;101046.13;;;13.51;100.00
64253;BME280;50592;52.958;-7.470;2023-10-08T07:16:27;101043.75;;;13.48;100.00
64253;BME280;50592;52.958;-7.470;2023-10-08T07:18:53;101046.41;;;13.48;100.00
64253;BME280;50592;52.958;-7.470;2023-10-08T07:21:27;101050.31;;;13.54;100.00
64253;BME280;50592;52.958;-7.470;2023-10-08T07:24:05;101050.47;;;13.52;100.00
64253;BME280;50592;52.958;-7.470;2023-10-08T07:26:35;101056.63;;;13.53;100.00
64253;BME280;50592;52.958;-7.470;2023-10-08T07:29:04;101067.78;;;13.57;100.00
64253;BME280;50592;52.958;-7.470;2023-10-08T07:31:37;101072.81;;;13.60;100.00
64253;BME280;50592;52.958;-7.470;2023-10-08T07:34:07;101087.34;;;13.56;100.00
64253;BME280;50592;52.958;-7.470;2023-10-08T07:36:45;101090.00;;;13.56;100.00
64253;BME280;50592;52.958;-7.470;2023-10-08T07:39:22;101090.00;;;13.56;100.00
64253;BME280;50592;52.958;-7.470;2023-10-08T07:41:57;101091.41;;;13.60;100.00
64253;BME280;50592;52.958;-7.470;2023-10-08T07:44:25;101092.84;;;13.72;100.00
64253;BME280;50592;52.958;-7.470;2023-10-08T07:46:52;101086.50;;;13.83;100.00
64253;BME280;50592;52.958;-7.470;2023-10-08T07:49:22;101092.19;;;13.88;100.00
64253;BME280;50592;52.958;-7.470;2023-10-08T07:51:51;101083.63;;;13.95;100.00
64253;BME280;50592;52.958;-7.470;2023-10-08T07:56:46;101099.56;;;14.13;100.00
64253;BME280;50592;52.958;-7.470;2023-10-08T07:59:13;101101.25;;;14.14;100.00
64253;BME280;50592;52.958;-7.470;2023-10-08T08:01:41;101099.09;;;14.18;100.00
64253;BME280;50592;52.958;-7.470;2023-10-08T08:04:09;101108.16;;;14.25;100.00
64253;BME280;50592;52.958;-7.470;2023-10-08T08:06:37;101120.59;;;14.24;100.00
64253;BME280;50592;52.958;-7.470;2023-10-08T08:09:03;101116.28;;;14.23;100.00
64253;BME280;50592;52.958;-7.470;2023-10-08T08:11:46;101106.84;;;14.29;100.00
64253;BME280;50592;52.958;-7.470;2023-10-08T08:14:13;101115.38;;;14.33;100.00
64253;BME280;50592;52.958;-7.470;2023-10-08T08:16:45;101108.09;;;14.35;100.00
64253;BME280;50592;52.958;-7.470;2023-10-08T08:19:14;101107.25;;;14.34;100.00
64253;BME280;50592;52.958;-7.470;2023-10-08T08:21:42;101111.56;;;14.35;100.00
64253;BME280;50592;52.958;-7.470;2023-10-08T08:24:14;101119.94;;;14.41;100.00
64253;BME280;50592;52.958;-7.470;2023-10-08T08:26:57;101121.59;;;14.42;100.00
64253;BME280;50592;52.958;-7.470;2023-10-08T08:29:38;101106.47;;;14.42;100.00
64253;BME280;50592;52.958;-7.470;2023-10-08T08:32:14;101109.97;;;14.43;100.00
64253;BME280;50592;52.958;-7.470;2023-10-08T08:34:42;101108.53;;;14.48;100.00
64253;BME280;50592;52.958;-7.470;2023-10-08T08:37:12;101113.38;;;14.53;100.00
64253;BME280;50592;52.958;-7.470;2023-10-08T08:39:39;101111.72;;;14.52;100.00
64253;BME280;50592;52.958;-7.470;2023-10-08T08:42:06;101108.91;;;14.54;100.00
64253;BME280;50592;52.958;-7.470;2023-10-08T08:44:37;101102.66;;;14.63;100.00
64253;BME280;50592;52.958;-7.470;2023-10-08T08:47:12;101108.44;;;14.58;100.00
64253;BME280;50592;52.958;-7.470;2023-10-08T08:49:42;101115.72;;;14.56;100.00
64253;BME280;50592;52.958;-7.470;2023-10-08T08:52:08;101122.19;;;14.54;100.00
64253;BME280;50592;52.958;-7.470;2023-10-08T08:54:34;101109.25;;;14.59;100.00
64253;BME280;50592;52.958;-7.470;2023-10-08T08:57:03;101085.31;;;14.59;100.00
64253;BME280;50592;52.958;-7.470;2023-10-08T08:59:30;101080.13;;;14.57;100.00
64253;BME280;50592;52.958;-7.470;2023-10-08T09:01:58;101088.28;;;14.56;100.00
64253;BME280;50592;52.958;-7.470;2023-10-08T09:04:29;101090.13;;;14.55;100.00
64253;BME280;50592;52.958;-7.470;2023-10-08T09:06:56;101106.59;;;14.59;100.00
64253;BME280;50592;52.958;-7.470;2023-10-08T09:09:27;101112.81;;;14.68;100.00
64253;BME280;50592;52.958;-7.470;2023-10-08T09:11:56;101109.31;;;14.85;100.00
64253;BME280;50592;52.958;-7.470;2023-10-08T09:14:25;101098.56;;;14.95;100.00
64253;BME280;50592;52.958;-7.470;2023-10-08T09:17:00;101114.41;;;15.05;100.00
64253;BME280;50592;52.958;-7.470;2023-10-08T09:19:29;101083.19;;;15.16;100.00
64253;BME280;50592;52.958;-7.470;2023-10-08T09:22:04;101074.94;;;15.27;100.00
64253;BME280;50592;52.958;-7.470;2023-10-08T09:24:34;101078.09;;;15.31;100.00
64253;BME280;50592;52.958;-7.470;2023-10-08T09:27:03;101084.78;;;15.35;100.00
64253;BME280;50592;52.958;-7.470;2023-10-08T09:29:29;101091.28;;;15.41;100.00
64253;BME280;50592;52.958;-7.470;2023-10-08T09:31:57;101064.03;;;15.55;100.00
64253;BME280;50592;52.958;-7.470;2023-10-08T09:34:28;101051.56;;;15.64;100.00
64253;BME280;50592;52.958;-7.470;2023-10-08T09:36:55;101067.22;;;15.67;100.00
64253;BME280;50592;52.958;-7.470;2023-10-08T09:39:22;101061.75;;;15.77;100.00
64253;BME280;50592;52.958;-7.470;2023-10-08T09:41:57;101073.75;;;15.90;100.00
64253;BME280;50592;52.958;-7.470;2023-10-08T09:44:24;101088.78;;;15.91;100.00
64253;BME280;50592;52.958;-7.470;2023-10-08T09:47:09;101088.19;;;16.05;100.00
64253;BME280;50592;52.958;-7.470;2023-10-08T09:50:01;101076.69;;;16.13;100.00
64253;BME280;50592;52.958;-7.470;2023-10-08T09:52:38;101091.34;;;16.26;100.00
64253;BME280;50592;52.958;-7.470;2023-10-08T09:55:09;101092.84;;;16.36;100.00
64253;BME280;50592;52.958;-7.470;2023-10-08T09:57:38;101092.34;;;16.41;100.00
64253;BME280;50592;52.958;-7.470;2023-10-08T10:00:05;101091.50;;;16.49;100.00
64253;BME280;50592;52.958;-7.470;2023-10-08T10:02:37;101099.50;;;16.49;100.00
64253;BME280;50592;52.958;-7.470;2023-10-08T10:05:03;101089.19;;;16.54;100.00
64253;BME280;50592;52.958;-7.470;2023-10-08T10:07:31;101087.66;;;16.60;100.00
64253;BME280;50592;52.958;-7.470;2023-10-08T10:09:57;101096.84;;;16.66;100.00
64253;BME280;50592;52.958;-7.470;2023-10-08T10:12:26;101095.81;;;16.75;100.00
64253;BME280;50592;52.958;-7.470;2023-10-08T10:14:53;101092.81;;;16.78;100.00
64253;BME280;50592;52.958;-7.470;2023-10-08T10:17:23;101093.13;;;16.83;100.00
64253;BME280;50592;52.958;-7.470;2023-10-08T10:19:59;101093.44;;;16.97;100.00
64253;BME280;50592;52.958;-7.470;2023-10-08T10:22:34;101102.25;;;17.06;100.00
64253;BME280;50592;52.958;-7.470;2023-10-08T10:25:01;101107.78;;;17.13;100.00
64253;BME280;50592;52.958;-7.470;2023-10-08T10:30:26;101116.47;;;17.15;100.00
64253;BME280;50592;52.958;-7.470;2023-10-08T10:33:02;101124.47;;;17.23;100.00
64253;BME280;50592;52.958;-7.470;2023-10-08T10:35:27;101123.78;;;17.21;100.00
64253;BME280;50592;52.958;-7.470;2023-10-08T10:37:54;101113.25;;;17.28;100.00
64253;BME280;50592;52.958;-7.470;2023-10-08T10:40:29;101120.22;;;17.37;100.00
64253;BME280;50592;52.958;-7.470;2023-10-08T10:43:05;101127.38;;;17.45;100.00
64253;BME280;50592;52.958;-7.470;2023-10-08T10:45:32;101126.84;;;17.50;100.00
64253;BME280;50592;52.958;-7.470;2023-10-08T10:48:18;101131.53;;;17.47;100.00
64253;BME280;50592;52.958;-7.470;2023-10-08T10:50:45;101139.88;;;17.53;100.00
64253;BME280;50592;52.958;-7.470;2023-10-08T10:53:35;101157.28;;;17.48;100.00
64253;BME280;50592;52.958;-7.470;2023-10-08T10:56:21;101163.78;;;17.46;100.00
64253;BME280;50592;52.958;-7.470;2023-10-08T10:59:02;101160.75;;;17.49;100.00
64253;BME280;50592;52.958;-7.470;2023-10-08T11:01:42;101161.44;;;17.43;100.00
64253;BME280;50592;52.958;-7.470;2023-10-08T11:04:12;101171.28;;;17.51;100.00
64253;BME280;50592;52.958;-7.470;2023-10-08T11:06:45;101163.41;;;17.57;100.00
64253;BME280;50592;52.958;-7.470;2023-10-08T11:09:12;101167.28;;;17.55;100.00
64253;BME280;50592;52.958;-7.470;2023-10-08T11:11:44;101160.56;;;17.59;100.00
64253;BME280;50592;52.958;-7.470;2023-10-08T11:14:15;101152.53;;;17.59;100.00
64253;BME280;50592;52.958;-7.470;2023-10-08T11:16:45;101159.25;;;17.55;100.00
64253;BME280;50592;52.958;-7.470;2023-10-08T11:19:11;101164.72;;;17.61;100.00
64253;BME280;50592;52.958;-7.470;2023-10-08T11:21:51;101154.97;;;17.77;100.00
64253;BME280;50592;52.958;-7.470;2023-10-08T11:24:29;101162.72;;;17.95;100.00
64253;BME280;50592;52.958;-7.470;2023-10-08T11:26:59;101153.63;;;18.05;100.00
64253;BME280;50592;52.958;-7.470;2023-10-08T11:29:47;101149.53;;;18.26;100.00
64253;BME280;50592;52.958;-7.470;2023-10-08T11:32:14;101143.09;;;18.35;100.00
64253;BME280;50592;52.958;-7.470;2023-10-08T11:34:47;101138.16;;;18.47;100.00
64253;BME280;50592;52.958;-7.470;2023-10-08T11:37:33;101127.78;;;18.67;100.00
64253;BME280;50592;52.958;-7.470;2023-10-08T11:40:02;101136.47;;;18.84;100.00
64253;BME280;50592;52.958;-7.470;2023-10-08T11:42:42;101131.72;;;18.95;100.00
64253;BME280;50592;52.958;-7.470;2023-10-08T11:45:10;101141.28;;;19.13;100.00
64253;BME280;50592;52.958;-7.470;2023-10-08T11:47:53;101122.88;;;19.25;100.00
64253;BME280;50592;52.958;-7.470;2023-10-08T11:50:28;101116.22;;;19.36;100.00
64253;BME280;50592;52.958;-7.470;2023-10-08T11:53:01;101115.09;;;19.45;100.00
64253;BME280;50592;52.958;-7.470;2023-10-08T11:55:29;101114.97;;;19.53;100.00
64253;BME280;50592;52.958;-7.470;2023-10-08T11:57:59;101118.75;;;19.59;100.00
64253;BME280;50592;52.958;-7.470;2023-10-08T12:00:26;101099.69;;;19.69;100.00
64253;BME280;50592;52.958;-7.470;2023-10-08T12:03:00;101109.03;;;19.73;100.00
64253;BME280;50592;52.958;-7.470;2023-10-08T12:05:36;101121.53;;;19.66;100.00
64253;BME280;50592;52.958;-7.470;2023-10-08T12:17:33;101103.22;;;19.54;100.00
64253;BME280;50592;52.958;-7.470;2023-10-08T12:21:00;101099.16;;;19.58;100.00
64253;BME280;50592;52.958;-7.470;2023-10-08T12:23:59;101102.28;;;19.62;100.00
64253;BME280;50592;52.958;-7.470;2023-10-08T12:26:53;101083.59;;;19.69;100.00
64253;BME280;50592;52.958;-7.470;2023-10-08T12:30:12;101081.75;;;19.91;100.00
64253;BME280;50592;52.958;-7.470;2023-10-08T13:13:15;101045.44;;;20.68;100.00
64253;BME280;50592;52.958;-7.470;2023-10-08T13:17:08;101040.91;;;20.68;100.00
64253;BME280;50592;52.958;-7.470;2023-10-08T13:29:26;101035.28;;;20.63;100.00
64253;BME280;50592;52.958;-7.470;2023-10-08T13:36:40;101036.78;;;20.73;100.00
64253;BME280;50592;52.958;-7.470;2023-10-08T14:01:57;101032.25;;;20.73;100.00
64253;BME280;50592;52.958;-7.470;2023-10-08T14:18:55;101040.75;;;21.12;100.00
64253;BME280;50592;52.958;-7.470;2023-10-08T14:21:41;101031.03;;;21.11;100.00
64253;BME280;50592;52.958;-7.470;2023-10-08T14:25:25;101030.22;;;21.17;100.00
64253;BME280;50592;52.958;-7.470;2023-10-08T14:27:53;101029.19;;;21.18;100.00
64253;BME280;50592;52.958;-7.470;2023-10-08T14:30:34;101033.97;;;21.23;100.00
64253;BME280;50592;52.958;-7.470;2023-10-08T14:33:17;101037.91;;;21.27;100.00
64253;BME280;50592;52.958;-7.470;2023-10-08T14:35:53;101045.16;;;21.27;100.00
64253;BME280;50592;52.958;-7.470;2023-10-08T14:38:37;101042.22;;;21.15;100.00
64253;BME280;50592;52.958;-7.470;2023-10-08T14:41:32;101036.25;;;21.19;100.00
64253;BME280;50592;52.958;-7.470;2023-10-08T15:05:49;101053.78;;;21.09;100.00
64253;BME280;50592;52.958;-7.470;2023-10-08T15:18:01;101047.91;;;20.98;100.00
64253;BME280;50592;52.958;-7.470;2023-10-08T15:20:56;101041.50;;;20.92;100.00
64253;BME280;50592;52.958;-7.470;2023-10-08T15:24:21;101039.38;;;20.88;100.00
64253;BME280;50592;52.958;-7.470;2023-10-08T15:31:31;101040.53;;;20.72;100.00
64253;BME280;50592;52.958;-7.470;2023-10-08T15:39:53;101030.13;;;20.62;100.00
64253;BME280;50592;52.958;-7.470;2023-10-08T15:43:34;101023.91;;;20.54;100.00
64253;BME280;50592;52.958;-7.470;2023-10-08T16:03:45;101023.13;;;20.32;100.00
64253;BME280;50592;52.958;-7.470;2023-10-08T16:06:11;101031.31;;;20.24;100.00
64253;BME280;50592;52.958;-7.470;2023-10-08T16:08:58;101031.50;;;20.22;100.00
64253;BME280;50592;52.958;-7.470;2023-10-08T16:11:24;101044.28;;;20.20;100.00
64253;BME280;50592;52.958;-7.470;2023-10-08T16:13:57;101047.09;;;20.12;100.00
64253;BME280;50592;52.958;-7.470;2023-10-08T16:16:23;101049.09;;;20.03;100.00
64253;BME280;50592;52.958;-7.470;2023-10-08T16:18:48;101047.47;;;19.87;100.00
64253;BME280;50592;52.958;-7.470;2023-10-08T16:21:14;101044.66;;;19.73;100.00
64253;BME280;50592;52.958;-7.470;2023-10-08T16:23:39;101044.13;;;19.63;100.00
64253;BME280;50592;52.958;-7.470;2023-10-08T16:26:09;101045.34;;;19.60;100.00
64253;BME280;50592;52.958;-7.470;2023-10-08T16:28:35;101032.25;;;19.50;100.00
64253;BME280;50592;52.958;-7.470;2023-10-08T16:31:00;101023.94;;;19.45;100.00
64253;BME280;50592;52.958;-7.470;2023-10-08T16:33:29;101027.84;;;19.42;100.00
64253;BME280;50592;52.958;-7.470;2023-10-08T16:35:56;101023.69;;;19.40;100.00
64253;BME280;50592;52.958;-7.470;2023-10-08T16:38:22;101022.00;;;19.39;100.00
64253;BME280;50592;52.958;-7.470;2023-10-08T16:40:47;101024.22;;;19.35;100.00
64253;BME280;50592;52.958;-7.470;2023-10-08T16:43:13;101035.78;;;19.36;100.00
64253;BME280;50592;52.958;-7.470;2023-10-08T16:45:45;101029.25;;;19.38;100.00
64253;BME280;50592;52.958;-7.470;2023-10-08T16:48:11;101041.72;;;19.31;100.00